createdAt,value
2023-01-10T00:00:35.495Z,9.60
2023-01-10T00:03:07.725Z,9.60
2023-01-10T00:05:38.457Z,9.60
2023-01-10T00:08:06.473Z,9.60
2023-01-10T00:10:33.992Z,9.50
2023-01-10T00:13:19.575Z,9.30
2023-01-10T00:15:47.147Z,9.40
2023-01-10T00:18:14.065Z,9.60
2023-01-10T00:20:40.974Z,9.70
2023-01-10T00:23:07.821Z,9.20
2023-01-10T00:25:36.217Z,8.90
2023-01-10T00:28:21.708Z,9.00
2023-01-10T00:30:57.294Z,9.20
2023-01-10T00:33:24.225Z,9.40
2023-01-10T00:35:51.069Z,9.40
2023-01-10T00:38:18.219Z,9.40
2023-01-10T00:40:46.414Z,9.50
2023-01-10T00:43:31.710Z,9.20
2023-01-10T00:45:58.678Z,9.00
2023-01-10T00:48:25.638Z,9.00
2023-01-10T00:50:52.569Z,9.20
2023-01-10T00:53:19.395Z,9.30
2023-01-10T00:55:46.472Z,9.10
2023-01-10T00:58:15.053Z,9.10
2023-01-10T01:00:46.174Z,9.20
2023-01-10T01:03:13.695Z,9.30
2023-01-10T01:05:42.423Z,9.30
2023-01-10T01:08:10.658Z,9.20
2023-01-10T01:10:37.550Z,9.00
2023-01-10T01:13:19.664Z,8.90
2023-01-10T01:15:47.268Z,9.00
2023-01-10T01:18:16.916Z,9.00
2023-01-10T01:20:45.891Z,9.20
2023-01-10T01:23:13.487Z,9.30
2023-01-10T01:25:40.798Z,9.50
2023-01-10T01:28:08.205Z,9.60
2023-01-10T01:30:35.637Z,9.70
2023-01-10T01:33:02.469Z,9.60
2023-01-10T01:35:29.257Z,9.50
2023-01-10T01:37:56.175Z,9.30
2023-01-10T01:40:23.533Z,9.30
2023-01-10T01:42:55.632Z,9.20
2023-01-10T01:45:33.314Z,9.00
2023-01-10T01:48:09.519Z,9.10
2023-01-10T01:50:51.598Z,9.00
2023-01-10T01:53:27.623Z,8.90
2023-01-10T01:55:57.756Z,8.90
2023-01-10T01:58:32.490Z,9.20
2023-01-10T02:00:59.961Z,9.40
2023-01-10T02:03:27.378Z,9.50
2023-01-10T02:05:54.432Z,9.40
2023-01-10T02:08:21.599Z,9.30
2023-01-10T02:10:52.670Z,9.10
2023-01-10T02:13:23.230Z,8.80
2023-01-10T02:15:50.727Z,8.40
2023-01-10T02:18:18.850Z,8.30
2023-01-10T02:21:16.564Z,8.40
2023-01-10T02:23:59.621Z,8.30
2023-01-10T02:26:29.220Z,8.30
2023-01-10T02:29:20.728Z,8.20
2023-01-10T02:32:28.557Z,8.00
2023-01-10T02:35:32.105Z,8.40
2023-01-10T02:38:16.901Z,8.80
2023-01-10T02:41:20.645Z,9.00
2023-01-10T02:43:53.745Z,9.00
2023-01-10T02:46:25.568Z,9.00
2023-01-10T02:48:54.163Z,9.00
2023-01-10T02:51:27.732Z,9.10
2023-01-10T02:54:00.590Z,9.00
2023-01-10T02:56:59.513Z,9.10
2023-01-10T02:59:38.313Z,9.20
2023-01-10T03:02:45.325Z,9.10
2023-01-10T03:05:23.825Z,9.10
2023-01-10T03:08:23.002Z,8.70
2023-01-10T03:11:09.478Z,8.60
2023-01-10T03:14:08.289Z,8.20
2023-01-10T03:16:38.092Z,8.10
2023-01-10T03:19:09.881Z,8.00
2023-01-10T03:21:37.452Z,8.10
2023-01-10T03:24:16.260Z,8.20
2023-01-10T03:26:52.604Z,8.20
2023-01-10T03:29:27.816Z,8.20
2023-01-10T03:31:57.723Z,8.00
2023-01-10T03:34:25.904Z,8.00
2023-01-10T03:37:24.503Z,8.10
2023-01-10T03:40:22.600Z,7.70
2023-01-10T03:43:22.377Z,7.60
2023-01-10T03:45:55.894Z,7.90
2023-01-10T03:48:23.753Z,8.00
2023-01-10T03:50:52.115Z,8.30
2023-01-10T03:53:19.762Z,8.70
2023-01-10T03:55:48.811Z,8.40
2023-01-10T03:58:17.360Z,8.10
2023-01-10T04:00:44.217Z,8.10
2023-01-10T04:03:11.160Z,8.30
2023-01-10T04:05:38.057Z,8.30
2023-01-10T04:08:05.109Z,8.20
2023-01-10T04:10:31.961Z,8.20
2023-01-10T04:13:02.745Z,8.20
2023-01-10T04:15:30.070Z,8.30
2023-01-10T04:17:56.925Z,8.40
2023-01-10T04:20:27.640Z,8.40
2023-01-10T04:22:54.852Z,8.30
2023-01-10T04:25:23.096Z,8.00
2023-01-10T04:27:53.066Z,7.90
2023-01-10T04:30:20.262Z,7.90
2023-01-10T04:32:47.742Z,7.80
2023-01-10T04:35:14.865Z,7.80
2023-01-10T04:37:42.634Z,7.80
2023-01-10T04:40:10.308Z,7.90
2023-01-10T04:42:37.308Z,7.90
2023-01-10T04:45:04.958Z,7.90
2023-01-10T04:47:31.795Z,7.80
2023-01-10T04:49:58.601Z,7.60
2023-01-10T04:52:27.282Z,7.50
2023-01-10T04:54:54.130Z,7.50
2023-01-10T04:57:20.963Z,7.50
2023-01-10T04:59:47.748Z,7.50
2023-01-10T05:02:14.672Z,7.60
2023-01-10T05:04:41.532Z,7.50
2023-01-10T05:07:08.382Z,7.30
2023-01-10T05:09:35.305Z,7.40
2023-01-10T05:12:02.318Z,7.50
2023-01-10T05:14:29.083Z,7.30
2023-01-10T05:16:56.619Z,7.20
2023-01-10T05:19:23.471Z,6.90
2023-01-10T05:21:52.143Z,6.70
2023-01-10T05:24:19.105Z,6.80
2023-01-10T05:26:45.968Z,6.60
2023-01-10T05:29:14.555Z,6.70
2023-01-10T05:31:41.636Z,6.70
2023-01-10T05:34:12.814Z,6.60
2023-01-10T05:36:40.137Z,6.60
2023-01-10T05:39:07.148Z,6.80
2023-01-10T05:41:34.015Z,6.70
2023-01-10T05:44:00.918Z,6.60
2023-01-10T05:46:27.789Z,6.70
2023-01-10T05:48:54.590Z,6.70
2023-01-10T05:51:21.468Z,6.80
2023-01-10T05:53:49.629Z,6.80
2023-01-10T05:56:17.111Z,6.90
2023-01-10T05:58:47.094Z,7.10
2023-01-10T06:01:14.124Z,7.20
2023-01-10T06:03:41.031Z,7.10
2023-01-10T06:06:08.027Z,6.70
2023-01-10T06:08:37.050Z,6.80
2023-01-10T06:11:05.147Z,6.80
2023-01-10T06:13:32.236Z,6.80
2023-01-10T06:15:59.336Z,6.90
2023-01-10T06:18:26.438Z,6.80
2023-01-10T06:20:53.826Z,6.80
2023-01-10T06:23:21.651Z,6.90
2023-01-10T06:25:48.520Z,6.80
2023-01-10T06:28:15.681Z,6.70
2023-01-10T06:30:43.505Z,6.80
2023-01-10T06:33:11.740Z,6.60
2023-01-10T06:35:39.138Z,6.70
2023-01-10T06:38:05.974Z,6.70
2023-01-10T06:40:33.082Z,6.70
2023-01-10T06:43:00.211Z,6.80
2023-01-10T06:45:27.256Z,7.00
2023-01-10T06:47:54.149Z,7.40
2023-01-10T06:50:21.191Z,7.70
2023-01-10T06:52:59.084Z,7.80
2023-01-10T06:55:26.460Z,7.80
2023-01-10T06:58:03.664Z,7.30
2023-01-10T07:00:31.455Z,6.90
2023-01-10T07:02:59.864Z,6.80
2023-01-10T07:05:26.880Z,6.80
2023-01-10T07:16:15.645Z,6.50
2023-01-10T07:18:43.127Z,6.70
2023-01-10T07:21:11.138Z,6.80
2023-01-10T07:23:38.463Z,6.80
2023-01-10T07:26:08.547Z,6.80
2023-01-10T07:28:35.568Z,6.90
2023-01-10T07:31:04.055Z,6.90
2023-01-10T07:33:31.539Z,7.00
2023-01-10T07:36:00.179Z,7.00
2023-01-10T07:38:27.030Z,6.70
2023-01-10T07:40:53.907Z,6.50
2023-01-10T07:43:20.821Z,6.60
2023-01-10T07:45:47.711Z,6.90
2023-01-10T07:48:14.557Z,7.00
2023-01-10T07:50:41.426Z,6.80
2023-01-10T07:53:08.691Z,7.00
2023-01-10T07:55:38.962Z,7.00
2023-01-10T07:58:10.584Z,6.80
2023-01-10T08:00:37.629Z,6.70
2023-01-10T08:03:06.291Z,6.90
2023-01-10T08:05:33.575Z,7.10
2023-01-10T08:08:08.188Z,7.10
2023-01-10T08:10:36.581Z,7.20
2023-01-10T08:13:16.973Z,7.30
2023-01-10T08:15:45.556Z,7.50
2023-01-10T08:18:12.572Z,7.50
2023-01-10T08:20:40.446Z,7.40
2023-01-10T08:23:07.244Z,7.40
2023-01-10T08:25:34.023Z,7.40
2023-01-10T08:28:01.052Z,7.70
2023-01-10T08:30:27.860Z,8.10
2023-01-10T08:32:54.817Z,8.40
2023-01-10T08:35:21.776Z,8.80
2023-01-10T08:37:48.695Z,9.20
2023-01-10T08:40:15.643Z,9.40
2023-01-10T08:42:42.577Z,9.70
2023-01-10T08:45:10.045Z,9.70
2023-01-10T08:47:36.931Z,9.90
2023-01-10T08:50:05.301Z,10.20
2023-01-10T08:52:32.832Z,10.30
2023-01-10T08:54:59.705Z,10.50
2023-01-10T08:57:26.668Z,10.60
2023-01-10T08:59:53.542Z,10.90
2023-01-10T09:02:20.455Z,11.00
2023-01-10T09:04:47.311Z,10.90
2023-01-10T09:07:14.151Z,11.00
2023-01-10T09:09:41.127Z,11.30
2023-01-10T09:12:28.078Z,11.10
2023-01-10T09:14:55.577Z,11.40
2023-01-10T09:17:22.489Z,11.50
2023-01-10T09:19:49.384Z,11.60
2023-01-10T09:22:16.233Z,11.60
2023-01-10T09:24:44.044Z,11.60
2023-01-10T09:27:11.429Z,11.60
2023-01-10T09:29:38.182Z,11.70
2023-01-10T09:32:05.548Z,11.90
2023-01-10T09:34:32.376Z,11.90
2023-01-10T09:36:59.419Z,11.70
2023-01-10T09:39:28.421Z,11.80
2023-01-10T09:42:07.119Z,11.90
2023-01-10T09:45:18.637Z,11.70
2023-01-10T09:53:30.798Z,12.30
2023-01-10T09:56:00.195Z,12.30
2023-01-10T09:58:31.219Z,12.40
2023-01-10T10:01:10.918Z,12.60
2023-01-10T10:03:56.015Z,12.70
2023-01-10T10:06:23.867Z,12.70
2023-01-10T10:08:52.128Z,12.50
2023-01-10T10:11:28.008Z,12.60
2023-01-10T10:14:03.857Z,12.70
2023-01-10T10:16:39.805Z,12.80
2023-01-10T10:19:32.764Z,13.10
2023-01-10T10:22:05.700Z,13.40
2023-01-10T10:24:55.336Z,13.70
2023-01-10T10:27:29.616Z,13.90
2023-01-10T10:29:56.428Z,14.00
2023-01-10T10:32:51.761Z,14.20
2023-01-10T10:35:30.771Z,14.30
2023-01-10T10:38:09.043Z,14.40
2023-01-10T10:40:39.551Z,14.50
2023-01-10T10:43:21.844Z,14.60
2023-01-10T10:45:55.384Z,14.70
2023-01-10T10:48:33.291Z,14.80
2023-01-10T10:51:15.999Z,14.90
2023-01-10T10:53:42.822Z,14.90
2023-01-10T10:56:16.084Z,15.10
2023-01-10T10:58:44.962Z,15.10
2023-01-10T11:01:16.253Z,15.10
2023-01-10T11:03:48.398Z,15.20
2023-01-10T11:06:17.156Z,15.20
2023-01-10T11:08:46.844Z,15.20
2023-01-10T11:11:26.182Z,15.30
2023-01-10T11:14:04.630Z,15.40
2023-01-10T11:16:39.083Z,15.40
2023-01-10T11:19:31.977Z,15.50
2023-01-10T11:22:06.887Z,15.60
2023-01-10T11:24:42.302Z,15.60
2023-01-10T11:27:21.986Z,15.70
2023-01-10T11:30:04.531Z,15.70
2023-01-10T11:32:37.315Z,15.70
2023-01-10T11:35:20.687Z,15.80
2023-01-10T11:38:13.914Z,15.90
2023-01-10T11:40:54.357Z,15.90
2023-01-10T11:43:28.002Z,16.00
2023-01-10T11:46:14.075Z,16.00
2023-01-10T11:49:04.439Z,16.00
2023-01-10T11:51:38.174Z,15.90
2023-01-10T11:54:11.853Z,15.90
2023-01-10T11:56:43.615Z,15.80
2023-01-10T11:59:15.517Z,15.70
2023-01-10T12:01:44.330Z,15.70
2023-01-10T12:04:20.896Z,15.50
2023-01-10T12:06:50.723Z,15.50
2023-01-10T12:09:36.727Z,15.50
2023-01-10T12:12:16.954Z,15.40
2023-01-10T12:14:44.624Z,15.40
2023-01-10T12:17:37.703Z,15.50
2023-01-10T12:20:06.538Z,15.40
2023-01-10T12:22:33.432Z,15.50
2023-01-10T12:25:06.510Z,15.50
2023-01-10T12:27:33.576Z,15.60
2023-01-10T12:30:11.466Z,15.80
2023-01-10T12:32:47.913Z,15.80
2023-01-10T12:35:20.419Z,15.90
2023-01-10T12:37:49.128Z,15.90
2023-01-10T12:40:29.638Z,16.00
2023-01-10T12:43:30.670Z,16.00
2023-01-10T12:46:16.792Z,16.00
2023-01-10T12:48:55.342Z,16.10
2023-01-10T12:51:26.226Z,16.10
2023-01-10T12:54:01.964Z,16.20
2023-01-10T12:56:29.913Z,16.20
2023-01-10T12:59:36.769Z,16.20
2023-01-10T13:02:21.383Z,16.20
2023-01-10T13:04:56.022Z,16.30
2023-01-10T13:07:34.553Z,16.40
2023-01-10T13:10:04.701Z,16.40
2023-01-10T13:12:39.992Z,16.30
2023-01-10T13:15:30.357Z,16.40
2023-01-10T13:18:15.693Z,16.60
2023-01-10T13:20:43.256Z,16.60
2023-01-10T13:23:30.493Z,16.70
2023-01-10T13:26:04.767Z,16.70
2023-01-10T13:28:34.761Z,16.70
2023-01-10T13:31:04.507Z,16.60
2023-01-10T13:33:55.956Z,16.70
2023-01-10T13:36:28.792Z,16.80
2023-01-10T13:39:02.036Z,16.80
2023-01-10T13:42:15.332Z,16.70
2023-01-10T13:45:19.232Z,16.70
2023-01-10T13:47:47.225Z,16.50
2023-01-10T13:50:25.731Z,16.50
2023-01-10T13:53:06.941Z,16.50
2023-01-10T13:55:39.657Z,16.50
2023-01-10T13:58:09.114Z,16.50
2023-01-10T14:00:54.748Z,16.50
2023-01-10T14:03:50.620Z,16.40
2023-01-10T14:06:32.158Z,16.40
2023-01-10T14:09:03.499Z,16.40
2023-01-10T14:11:54.234Z,16.40
2023-01-10T14:14:25.575Z,16.50
2023-01-10T14:16:56.742Z,16.50
2023-01-10T14:19:31.228Z,16.40
2023-01-10T14:22:01.549Z,16.40
2023-01-10T14:24:51.596Z,16.40
2023-01-10T14:27:20.235Z,16.30
2023-01-10T14:29:59.220Z,16.30
2023-01-10T14:32:34.995Z,16.30
2023-01-10T14:35:05.269Z,16.30
2023-01-10T14:37:44.668Z,16.30
2023-01-10T14:40:18.596Z,16.30
2023-01-10T14:42:49.012Z,16.30
2023-01-10T14:45:53.517Z,16.30
2023-01-10T14:48:45.606Z,16.20
2023-01-10T14:51:12.376Z,16.30
2023-01-10T14:53:39.270Z,16.30
2023-01-10T14:56:29.472Z,16.30
2023-01-10T14:58:56.719Z,16.20
2023-01-10T15:01:26.519Z,16.10
2023-01-10T15:03:54.854Z,16.10
2023-01-10T15:06:21.694Z,16.00
2023-01-10T15:08:59.635Z,15.90
2023-01-10T15:11:27.922Z,15.80
2023-01-10T15:14:00.120Z,15.80
2023-01-10T15:16:28.686Z,15.90
2023-01-10T15:18:56.739Z,16.00
2023-01-10T15:21:25.651Z,15.90
2023-01-10T15:23:53.492Z,15.90
2023-01-10T15:26:24.831Z,15.90
2023-01-10T15:29:10.855Z,15.90
2023-01-10T15:31:38.801Z,15.90
2023-01-10T15:34:17.047Z,15.70
2023-01-10T15:36:48.995Z,15.50
2023-01-10T15:39:29.980Z,15.40
2023-01-10T15:42:01.166Z,15.40
2023-01-10T15:44:44.852Z,15.30
2023-01-10T15:47:49.536Z,15.30
2023-01-10T15:50:28.328Z,15.30
2023-01-10T15:52:59.829Z,15.20
2023-01-10T15:55:50.099Z,15.20
2023-01-10T15:58:28.903Z,15.10
2023-01-10T16:00:57.785Z,15.20
2023-01-10T16:03:39.041Z,15.10
2023-01-10T16:06:09.931Z,15.10
2023-01-10T16:08:38.739Z,15.00
2023-01-10T16:11:08.844Z,15.00
2023-01-10T16:13:37.413Z,15.00
2023-01-10T16:16:15.216Z,15.00
2023-01-10T16:18:42.324Z,14.90
2023-01-10T16:21:11.333Z,14.80
2023-01-10T16:23:44.007Z,14.90
2023-01-10T16:26:10.798Z,14.90
2023-01-10T16:28:38.012Z,15.00
2023-01-10T16:31:06.910Z,15.20
2023-01-10T16:33:36.953Z,15.10
2023-01-10T16:36:04.151Z,14.80
2023-01-10T16:38:30.983Z,14.50
2023-01-10T16:40:59.981Z,14.30
2023-01-10T16:43:29.250Z,14.20
2023-01-10T16:46:03.820Z,14.20
2023-01-10T16:48:31.982Z,14.10
2023-01-10T16:51:19.288Z,14.10
2023-01-10T16:53:47.151Z,14.20
2023-01-10T16:56:16.766Z,14.00
2023-01-10T16:58:43.605Z,14.00
2023-01-10T17:01:19.724Z,14.00
2023-01-10T17:03:47.363Z,13.80
2023-01-10T17:06:15.504Z,13.70
2023-01-10T17:08:43.311Z,13.70
2023-01-10T17:11:35.899Z,13.70
2023-01-10T17:14:22.825Z,13.60
2023-01-10T17:16:50.098Z,13.60
2023-01-10T17:19:17.189Z,13.50
2023-01-10T17:21:43.962Z,13.50
2023-01-10T17:24:11.814Z,13.50
2023-01-10T17:26:38.703Z,13.50
2023-01-10T17:29:05.565Z,13.40
2023-01-10T17:31:32.385Z,13.30
2023-01-10T17:33:59.207Z,13.10
2023-01-10T17:36:29.754Z,13.10
2023-01-10T17:38:57.035Z,13.10
2023-01-10T17:41:24.280Z,13.20
2023-01-10T17:43:51.600Z,13.30
2023-01-10T17:46:18.516Z,13.40
2023-01-10T17:48:45.444Z,13.40
2023-01-10T17:51:13.232Z,13.30
2023-01-10T17:53:40.837Z,13.10
2023-01-10T17:56:08.514Z,13.10
2023-01-10T17:58:35.752Z,13.10
2023-01-10T18:01:02.906Z,13.10
2023-01-10T18:03:29.758Z,12.80
2023-01-10T18:05:58.796Z,12.70
2023-01-10T18:08:26.064Z,12.40
2023-01-10T18:10:59.097Z,12.50
2023-01-10T18:13:29.889Z,12.70
2023-01-10T18:15:56.819Z,12.70
2023-01-10T18:18:26.552Z,12.30
2023-01-10T18:20:55.313Z,12.00
2023-01-10T18:23:22.495Z,11.70
2023-01-10T18:26:01.577Z,11.80
2023-01-10T18:28:40.520Z,11.80
2023-01-10T18:31:18.723Z,11.80
2023-01-10T18:33:46.972Z,11.70
2023-01-10T18:36:19.467Z,11.70
2023-01-10T18:38:47.819Z,11.40
2023-01-10T18:41:15.751Z,11.30
2023-01-10T18:43:42.637Z,11.20
2023-01-10T18:46:18.458Z,10.90
2023-01-10T18:48:46.249Z,10.60
2023-01-10T18:51:14.751Z,10.60
2023-01-10T18:53:42.697Z,10.80
2023-01-10T18:56:10.353Z,11.00
2023-01-10T18:58:39.520Z,10.90
2023-01-10T19:01:12.833Z,11.10
2023-01-10T19:03:40.146Z,11.20
2023-01-10T19:06:10.917Z,11.10
2023-01-10T19:08:39.401Z,11.00
2023-01-10T19:11:13.980Z,10.80
2023-01-10T19:13:41.736Z,10.70
2023-01-10T19:16:14.624Z,10.60
2023-01-10T19:18:42.178Z,10.50
2023-01-10T19:21:15.101Z,10.20
2023-01-10T19:23:43.339Z,10.10
2023-01-10T19:26:10.475Z,10.00
2023-01-10T19:28:37.259Z,10.40
2023-01-10T19:31:05.393Z,10.30
2023-01-10T19:33:34.637Z,10.30
2023-01-10T19:36:06.417Z,9.90
2023-01-10T19:38:33.604Z,10.20
2023-01-10T19:41:00.455Z,10.30
2023-01-10T19:43:27.611Z,10.40
2023-01-10T19:45:55.123Z,10.60
2023-01-10T19:48:23.279Z,10.50
2023-01-10T19:50:50.034Z,10.40
2023-01-10T19:53:17.644Z,10.30
2023-01-10T19:55:44.470Z,10.20
2023-01-10T19:58:11.419Z,10.10
2023-01-10T20:00:38.259Z,10.20
2023-01-10T20:03:07.629Z,10.10
2023-01-10T20:05:36.317Z,10.20
2023-01-10T20:08:04.923Z,10.00
2023-01-10T20:10:31.860Z,9.70
2023-01-10T20:12:58.691Z,9.70
2023-01-10T20:15:25.970Z,9.80
2023-01-10T20:17:52.873Z,9.60
2023-01-10T20:20:21.286Z,9.70
2023-01-10T20:22:48.362Z,9.80
2023-01-10T20:25:15.205Z,9.90
2023-01-10T20:27:42.122Z,9.90
2023-01-10T20:30:13.844Z,10.00
2023-01-10T20:32:40.825Z,10.00
2023-01-10T20:35:07.897Z,10.20
2023-01-10T20:37:35.155Z,10.20
2023-01-10T20:40:02.601Z,10.10
2023-01-10T20:42:30.463Z,9.70
2023-01-10T20:44:58.314Z,9.50
2023-01-10T20:47:27.744Z,9.30
2023-01-10T20:49:55.813Z,8.90
2023-01-10T20:52:22.641Z,8.90
2023-01-10T20:54:50.205Z,9.20
2023-01-10T20:57:17.237Z,9.20
2023-01-10T20:59:44.047Z,9.00
2023-01-10T21:02:11.581Z,9.20
2023-01-10T21:04:39.852Z,9.40
2023-01-10T21:07:06.867Z,9.60
2023-01-10T21:09:33.820Z,9.60
2023-01-10T21:12:13.763Z,9.70
2023-01-10T21:14:49.800Z,9.60
2023-01-10T21:17:17.252Z,9.30
2023-01-10T21:19:44.144Z,8.90
2023-01-10T21:22:11.005Z,9.00
2023-01-10T21:24:38.015Z,9.10
2023-01-10T21:27:04.832Z,9.20
2023-01-10T21:29:31.601Z,9.10
2023-01-10T21:31:58.393Z,9.00
2023-01-10T21:34:25.231Z,8.90
2023-01-10T21:36:52.193Z,8.90
2023-01-10T21:39:19.023Z,9.10
2023-01-10T21:42:04.344Z,9.20
2023-01-10T21:44:31.339Z,9.20
2023-01-10T21:46:58.119Z,9.20
2023-01-10T21:49:24.988Z,9.30
2023-01-10T21:51:51.952Z,9.40
2023-01-10T21:54:18.932Z,9.50
